Piru, California
Current Conditions -  °F | °C
As of 4:55 PM on Friday 31 Oct 2014 (Local Time) from KCMA Reporting Station
Overcast Overcast  
Wind Chill: 67°   Ceiling: 6000
Heat Index: 67°   Visibility: 10mi
Dew Point: 57°   Wind: 10mph
Humidity: 70%   Direction: 200°SSW
Pressure: 29.85"   Gusts: NA
Location:  34.42°N, 118.8°W
Report Text: KCMA 312355Z 20009KT 10SM SCT040 OVC060 19/14 A2985 RMK AO2 SLP117 T01940139 10211 20194 56010
Loading
Personal Weather Stations






























Interactive Weather Map
Tropical Storm Tracking
New forecast layout! Learn more

10-Day Weather Forecast

Advertisements
Track Severe Weather on mobile